Gustavus Airport
PAGS : rendu visible

Aérodrome :











RETROUVEZ-NOUS SUR...

 
LOGIN :

S'inscrire | Disclaimer

   EN    FR    IT 

 









Légende :    VFR   VFR Marginal   IFR   IFR Intensif   IFR Très Intensif
Visi : 
Plafond : 
>= 8 km
>= 3000ft
5 à 8 km
1000 à 3000 ft
1500m à 5 km
500 à 1000 ft
800 à 1500m
200 à 500 ft
< 800m
< 200 ft
Symboles :   Orages  Brouillard  Fortes neiges  Fortes précipitations  Vent > 20 kt






- Altitude de l'aérodrome : 35 ft
- Code IATA : GST


PAGS - Gustavus

DERNIER METAR :
  • 011756Z AUTO 36004KT 10SM CLR M01/M11 A3045 RMK AO2 SLP309 T10061111 11006 21111 58002 FZRANO

METARs EXPIRÉS :
  • 011656Z AUTO 00000KT 10SM CLR M03/M09 A3045 RMK AO2 SLP309 T10281094 FZRANO
  • 011556Z AUTO 00000KT 10SM CLR M08/M12 A3045 RMK AO2 SLP312 T10831117 FZRANO

TAF PAGS
Valide du 01 à 18h jusqu'au 02 à 18h UTC


011724Z 0118/0218 VRB06KT P6SM FEW100
FM012300 22008KT P6SM SKC
FM020300 14004KT P6SM SKC AMD LTD TO CLD VIS AND WIND



MET'MAP, la Météo Aéronautique d'un coup d'oeil ! - Copyright ORBIFLY Décembre 2007 - Disclaimer

ORBIFLY MET'MAP TEAM :

Programmation & Développement : Alexandra Zaïnal
Sur une idée originale de : Baudouin d'Aumeries
Assistance à la programmation : Marc-Olivier Méhu
Soutien technique & logistique : Manuel Goepfert

Contact : metmap@orbifly.com




SOURCES & CREDITS :

   NOAA       Earth
Advisory